Time,TemperatureF,DewpointF,PressureIn,WindDirection,WindDirectionDegrees,WindSpeedMPH,WindSpeedGustMPH,Humidity,HourlyPrecipIn,Conditions,Clouds,dailyrainin,SolarRadiationWatts/m^2,SoftwareType,DateUTC
2013-10-09 00:02:00,63.3,60.3,30.04,NNE,30,4.0,4.0,90,0.00,,,0.00,0.0,meteohub,2013-10-09 04:02:00,
2013-10-09 00:05:00,63.3,60.3,30.04,NNW,343,0.0,4.0,90,0.00,,,0.00,0.0,meteohub,2013-10-09 04:05:00,
2013-10-09 00:07:00,63.3,60.3,30.04,NNW,347,0.0,4.0,90,0.00,,,0.00,0.0,meteohub,2013-10-09 04:07:00,
2013-10-09 00:08:00,63.1,60.1,30.04,North,10,0.0,5.0,90,0.00,,,0.00,0.0,meteohub,2013-10-09 04:08:00,
2013-10-09 00:12:00,63.1,60.4,30.04,North,11,0.0,5.0,91,0.00,,,0.00,0.0,meteohub,2013-10-09 04:12:00,
2013-10-09 00:17:00,63.1,60.4,30.04,NNE,12,1.0,5.0,91,0.00,,,0.00,0.0,meteohub,2013-10-09 04:17:00,
2013-10-09 00:22:00,63.0,60.3,30.04,NNW,339,2.0,3.0,91,0.00,,,0.00,0.0,meteohub,2013-10-09 04:22:00,
2013-10-09 00:27:00,62.8,60.1,30.04,NNE,15,1.0,3.0,91,0.00,,,0.00,0.0,meteohub,2013-10-09 04:27:00,
2013-10-09 00:33:00,62.6,59.9,30.04,North,5,3.0,6.0,91,0.00,,,0.00,0.0,meteohub,2013-10-09 04:33:00,
2013-10-09 00:40:00,62.4,59.7,30.04,NNW,339,0.0,5.0,91,0.00,,,0.00,0.0,meteohub,2013-10-09 04:40:00,
2013-10-09 00:46:00,62.4,59.7,30.04,NNE,31,1.0,5.0,91,0.00,,,0.00,0.0,meteohub,2013-10-09 04:46:00,
2013-10-09 00:52:00,62.4,59.7,30.04,NNE,26,2.0,4.0,91,0.00,,,0.00,0.0,meteohub,2013-10-09 04:52:00,
2013-10-09 00:58:00,62.2,59.5,30.04,NE,44,2.0,4.0,91,0.00,,,0.00,0.0,meteohub,2013-10-09 04:58:00,
2013-10-09 01:04:00,62.1,59.4,30.04,NNE,17,2.0,4.0,91,0.00,,,0.00,0.0,meteohub,2013-10-09 05:04:00,
2013-10-09 01:10:00,62.1,59.4,30.04,West,264,2.0,5.0,91,0.00,,,0.00,0.0,meteohub,2013-10-09 05:10:00,
2013-10-09 01:17:00,62.1,59.4,30.04,WSW,252,0.0,5.0,91,0.00,,,0.00,0.0,meteohub,2013-10-09 05:17:00,
2013-10-09 01:22:00,62.1,59.4,30.03,NNE,13,1.0,3.0,91,0.00,,,0.00,0.0,meteohub,2013-10-09 05:22:00,
2013-10-09 01:29:00,61.9,59.5,30.04,NNE,25,1.0,5.0,92,0.00,,,0.00,0.0,meteohub,2013-10-09 05:29:00,
2013-10-09 01:35:00,61.7,59.4,30.04,ENE,57,3.0,5.0,92,0.00,,,0.00,0.0,meteohub,2013-10-09 05:35:00,
2013-10-09 01:41:00,61.5,59.2,30.04,East,80,0.0,5.0,92,0.00,,,0.00,0.0,meteohub,2013-10-09 05:41:00,
2013-10-09 01:47:00,61.3,59.0,30.04,North,355,0.0,5.0,92,0.00,,,0.00,0.0,meteohub,2013-10-09 05:47:00,
2013-10-09 01:54:00,61.3,59.0,30.04,North,0,0.0,4.0,92,0.00,,,0.00,0.0,meteohub,2013-10-09 05:54:00,
2013-10-09 02:00:00,61.2,58.8,30.04,NE,47,1.0,4.0,92,0.00,,,0.00,0.0,meteohub,2013-10-09 06:00:00,
2013-10-09 02:06:00,61.2,58.8,30.04,ENE,63,1.0,4.0,92,0.00,,,0.00,0.0,meteohub,2013-10-09 06:06:00,
2013-10-09 02:12:00,61.2,58.8,30.04,NW,315,2.0,5.0,92,0.00,,,0.00,0.0,meteohub,2013-10-09 06:12:00,
2013-10-09 02:17:00,61.2,58.8,30.05,NNW,330,1.0,5.0,92,0.00,,,0.00,0.0,meteohub,2013-10-09 06:17:00,
2013-10-09 02:24:00,61.0,58.6,30.04,North,355,2.0,5.0,92,0.00,,,0.00,0.0,meteohub,2013-10-09 06:24:00,
2013-10-09 02:30:00,60.8,58.5,30.04,NE,46,1.0,4.0,92,0.00,,,0.00,0.0,meteohub,2013-10-09 06:30:00,
2013-10-09 02:37:00,60.6,58.3,30.04,NNE,17,1.0,4.0,92,0.00,,,0.00,0.0,meteohub,2013-10-09 06:37:00,
2013-10-09 02:42:00,60.6,58.3,30.04,ENE,57,0.0,4.0,92,0.00,,,0.00,0.0,meteohub,2013-10-09 06:42:00,
2013-10-09 02:49:00,60.6,58.3,30.04,North,0,1.0,4.0,92,0.00,,,0.00,0.0,meteohub,2013-10-09 06:49:00,
2013-10-09 02:55:00,60.4,58.1,30.04,NNW,335,3.0,4.0,92,0.00,,,0.00,0.0,meteohub,2013-10-09 06:55:00,
2013-10-09 03:01:00,60.4,58.1,30.04,ENE,66,1.0,6.0,92,0.00,,,0.00,0.0,meteohub,2013-10-09 07:01:00,
2013-10-09 03:07:00,60.3,57.9,30.04,NNE,31,4.0,6.0,92,0.00,,,0.00,0.0,meteohub,2013-10-09 07:07:00,
2013-10-09 03:12:00,60.3,57.9,30.04,NNE,22,1.0,5.0,92,0.00,,,0.00,0.0,meteohub,2013-10-09 07:12:00,
2013-10-09 03:17:00,60.3,57.9,30.04,NE,49,2.0,5.0,92,0.00,,,0.00,0.0,meteohub,2013-10-09 07:17:00,
2013-10-09 03:22:00,60.3,57.9,30.03,NE,48,1.0,5.0,92,0.00,,,0.00,0.0,meteohub,2013-10-09 07:22:00,
2013-10-09 03:27:00,60.3,57.9,30.03,SW,229,1.0,5.0,92,0.00,,,0.00,0.0,meteohub,2013-10-09 07:27:00,
2013-10-09 03:32:00,60.3,57.9,30.03,ENE,68,2.0,4.0,92,0.00,,,0.00,0.0,meteohub,2013-10-09 07:32:00,
2013-10-09 03:37:00,60.1,57.7,30.03,ENE,65,2.0,4.0,92,0.00,,,0.00,0.0,meteohub,2013-10-09 07:37:00,
2013-10-09 03:42:00,60.1,58.1,30.03,NNE,22,2.0,6.0,93,0.00,,,0.00,0.0,meteohub,2013-10-09 07:42:00,
2013-10-09 03:47:00,60.1,58.1,30.03,NNE,28,3.0,6.0,93,0.00,,,0.00,0.0,meteohub,2013-10-09 07:47:00,
2013-10-09 03:52:00,59.9,58.1,30.03,NNE,27,0.0,6.0,94,0.00,,,0.00,0.0,meteohub,2013-10-09 07:52:00,
2013-10-09 03:57:00,59.7,57.9,30.03,NNW,348,2.0,4.0,94,0.00,,,0.00,0.0,meteohub,2013-10-09 07:57:00,
2013-10-09 04:02:00,59.7,57.9,30.03,NNW,346,0.0,4.0,94,0.00,,,0.00,0.0,meteohub,2013-10-09 08:02:00,
2013-10-09 04:07:00,59.5,57.7,30.04,NNE,26,1.0,4.0,94,0.00,,,0.00,0.0,meteohub,2013-10-09 08:07:00,
2013-10-09 04:12:00,59.5,58.1,30.04,North,355,0.0,4.0,95,0.00,,,0.00,0.0,meteohub,2013-10-09 08:12:00,
2013-10-09 04:17:00,59.5,58.1,30.04,East,90,1.0,3.0,95,0.00,,,0.00,0.0,meteohub,2013-10-09 08:17:00,
2013-10-09 04:22:00,59.5,58.1,30.04,ENE,76,1.0,4.0,95,0.00,,,0.00,0.0,meteohub,2013-10-09 08:22:00,
2013-10-09 04:27:00,59.5,58.1,30.04,North,11,0.0,4.0,95,0.00,,,0.00,0.0,meteohub,2013-10-09 08:27:00,
2013-10-09 04:32:00,59.5,58.1,30.04,NNE,21,2.0,6.0,95,0.00,,,0.00,0.0,meteohub,2013-10-09 08:32:00,
2013-10-09 04:37:00,59.7,58.3,30.04,NNW,343,1.0,6.0,95,0.00,,,0.00,0.0,meteohub,2013-10-09 08:37:00,
2013-10-09 04:42:00,59.7,58.3,30.04,NNE,28,0.0,2.0,95,0.00,,,0.00,0.0,meteohub,2013-10-09 08:42:00,
2013-10-09 04:47:00,59.7,58.3,30.04,NE,37,1.0,2.0,95,0.00,,,0.00,0.0,meteohub,2013-10-09 08:47:00,
2013-10-09 04:52:00,59.7,58.3,30.04,ENE,67,0.0,2.0,95,0.00,,,0.00,0.0,meteohub,2013-10-09 08:52:00,
2013-10-09 04:57:00,59.7,58.3,30.04,NE,34,0.0,2.0,95,0.00,,,0.00,0.0,meteohub,2013-10-09 08:57:00,
2013-10-09 05:02:00,59.7,58.3,30.04,NNE,26,1.0,3.0,95,0.00,,,0.00,0.0,meteohub,2013-10-09 09:02:00,
2013-10-09 05:07:00,59.7,58.3,30.04,North,355,1.0,3.0,95,0.00,,,0.00,0.0,meteohub,2013-10-09 09:07:00,
2013-10-09 05:12:00,59.7,58.3,30.04,NE,37,1.0,3.0,95,0.00,,,0.00,0.0,meteohub,2013-10-09 09:12:00,
2013-10-09 05:17:00,59.7,58.3,30.04,NE,42,1.0,3.0,95,0.00,,,0.00,0.0,meteohub,2013-10-09 09:17:00,
2013-10-09 05:22:00,59.5,58.1,30.04,WNW,298,0.0,3.0,95,0.00,,,0.00,0.0,meteohub,2013-10-09 09:22:00,
2013-10-09 05:27:00,59.5,58.5,30.04,NW,322,0.0,3.0,96,0.00,,,0.00,0.0,meteohub,2013-10-09 09:27:00,
2013-10-09 05:32:00,59.5,58.5,30.04,NNE,26,0.0,3.0,96,0.00,,,0.00,0.0,meteohub,2013-10-09 09:32:00,
2013-10-09 05:37:00,59.5,58.5,30.05,WNW,282,0.0,5.0,96,0.00,,,0.00,0.0,meteohub,2013-10-09 09:37:00,
2013-10-09 05:45:00,59.5,58.5,30.05,NNE,26,0.0,5.0,96,0.00,,,0.00,0.0,meteohub,2013-10-09 09:45:00,
2013-10-09 05:51:00,59.5,58.5,30.05,NW,322,0.0,5.0,96,0.00,,,0.00,0.0,meteohub,2013-10-09 09:51:00,
2013-10-09 05:57:00,59.5,58.5,30.05,North,350,0.0,4.0,96,0.00,,,0.00,0.0,meteohub,2013-10-09 09:57:00,
2013-10-09 06:02:00,59.5,58.5,30.05,NW,310,1.0,4.0,96,0.00,,,0.00,0.0,meteohub,2013-10-09 10:02:00,
2013-10-09 06:07:00,59.5,58.5,30.05,West,265,1.0,3.0,96,0.00,,,0.00,0.0,meteohub,2013-10-09 10:07:00,
2013-10-09 06:12:00,59.5,58.5,30.05,NE,36,0.0,3.0,96,0.00,,,0.00,0.0,meteohub,2013-10-09 10:12:00,
2013-10-09 06:19:00,59.5,58.1,30.05,NE,51,2.0,3.0,95,0.00,,,0.00,0.0,meteohub,2013-10-09 10:19:00,
2013-10-09 06:25:00,59.5,58.1,30.05,ENE,59,0.0,3.0,95,0.00,,,0.00,0.0,meteohub,2013-10-09 10:25:00,
2013-10-09 06:31:00,59.5,58.1,30.05,NNE,27,2.0,3.0,95,0.00,,,0.00,0.0,meteohub,2013-10-09 10:31:00,
2013-10-09 06:37:00,59.5,58.1,30.06,NNW,331,1.0,3.0,95,0.00,,,0.00,0.0,meteohub,2013-10-09 10:37:00,
2013-10-09 06:43:00,59.5,58.1,30.06,NNW,327,0.0,3.0,95,0.00,,,0.00,0.0,meteohub,2013-10-09 10:43:00,
2013-10-09 06:50:00,59.5,58.1,30.06,NNW,327,1.0,3.0,95,0.00,,,0.00,0.0,meteohub,2013-10-09 10:50:00,
2013-10-09 06:56:00,59.5,57.7,30.06,SE,127,1.0,2.0,94,0.00,,,0.00,0.0,meteohub,2013-10-09 10:56:00,
2013-10-09 07:02:00,59.5,57.7,30.06,NW,325,1.0,3.0,94,0.00,,,0.00,0.0,meteohub,2013-10-09 11:02:00,
2013-10-09 07:07:00,59.5,57.7,30.06,East,89,1.0,5.0,94,0.00,,,0.00,0.0,meteohub,2013-10-09 11:07:00,
2013-10-09 07:12:00,59.5,57.7,30.06,NE,44,1.0,5.0,94,0.00,,,0.00,0.0,meteohub,2013-10-09 11:12:00,
2013-10-09 07:17:00,59.5,57.7,30.06,NE,55,2.0,3.0,94,0.00,,,0.00,0.0,meteohub,2013-10-09 11:17:00,
2013-10-09 07:22:00,59.5,57.7,30.07,SE,140,1.0,3.0,94,0.00,,,0.00,0.0,meteohub,2013-10-09 11:22:00,
2013-10-09 07:27:00,59.5,57.7,30.07,East,89,3.0,3.0,94,0.00,,,0.00,0.0,meteohub,2013-10-09 11:27:00,
2013-10-09 07:33:00,59.4,57.6,30.07,NNE,28,3.0,3.0,94,0.00,,,0.00,0.0,meteohub,2013-10-09 11:33:00,
2013-10-09 07:39:00,59.4,57.6,30.08,North,9,1.0,4.0,94,0.00,,,0.00,0.0,meteohub,2013-10-09 11:39:00,
2013-10-09 07:45:00,59.4,57.6,30.08,NNW,336,1.0,4.0,94,0.00,,,0.00,5.0,meteohub,2013-10-09 11:45:00,
2013-10-09 07:51:00,59.2,57.4,30.08,North,11,2.0,4.0,94,0.00,,,0.00,5.0,meteohub,2013-10-09 11:51:00,
2013-10-09 07:57:00,59.2,57.4,30.08,NNW,342,0.0,5.0,94,0.00,,,0.00,5.0,meteohub,2013-10-09 11:57:00,
2013-10-09 08:02:00,59.2,57.4,30.08,NNW,344,1.0,5.0,94,0.00,,,0.00,9.0,meteohub,2013-10-09 12:02:00,
2013-10-09 08:04:00,59.2,57.4,30.08,NNW,346,1.0,5.0,94,0.00,,,0.00,9.0,meteohub,2013-10-09 12:04:00,
2013-10-09 08:10:00,59.2,57.4,30.08,NE,37,0.0,5.0,94,0.00,,,0.00,11.0,meteohub,2013-10-09 12:10:00,
2013-10-09 08:16:00,59.4,57.6,30.09,NE,49,0.0,5.0,94,0.00,,,0.00,14.0,meteohub,2013-10-09 12:16:00,
2013-10-09 08:22:00,59.4,57.6,30.09,NW,319,2.0,5.0,94,0.00,,,0.00,19.0,meteohub,2013-10-09 12:22:00,
2013-10-09 08:27:00,59.4,57.4,30.09,NNE,13,1.0,3.0,93,0.00,,,0.00,21.0,meteohub,2013-10-09 12:27:00,
2013-10-09 08:32:00,59.4,57.6,30.09,NNE,33,3.0,3.0,94,0.00,,,0.00,26.0,meteohub,2013-10-09 12:32:00,
2013-10-09 08:37:00,59.4,57.6,30.09,NNE,32,1.0,5.0,94,0.00,,,0.00,25.0,meteohub,2013-10-09 12:37:00,
2013-10-09 08:42:00,59.4,57.6,30.09,North,355,0.0,5.0,94,0.00,,,0.00,25.0,meteohub,2013-10-09 12:42:00,
2013-10-09 08:47:00,59.5,57.7,30.09,NE,50,0.0,5.0,94,0.00,,,0.00,30.0,meteohub,2013-10-09 12:47:00,
2013-10-09 08:52:00,59.5,57.7,30.09,NE,42,2.0,5.0,94,0.00,,,0.00,33.0,meteohub,2013-10-09 12:52:00,
2013-10-09 08:57:00,59.5,57.6,30.09,NW,325,1.0,3.0,93,0.00,,,0.00,35.0,meteohub,2013-10-09 12:57:00,
2013-10-09 09:02:00,59.5,57.7,30.09,ENE,70,1.0,3.0,94,0.00,,,0.00,40.0,meteohub,2013-10-09 13:02:00,
2013-10-09 09:07:00,59.5,57.6,30.10,West,271,1.0,4.0,93,0.00,,,0.00,44.0,meteohub,2013-10-09 13:07:00,
2013-10-09 09:12:00,59.5,57.6,30.10,NNE,32,1.0,4.0,93,0.00,,,0.00,51.0,meteohub,2013-10-09 13:12:00,
2013-10-09 09:17:00,59.5,57.6,30.10,NW,322,2.0,5.0,93,0.00,,,0.00,51.0,meteohub,2013-10-09 13:17:00,
2013-10-09 09:22:00,59.5,57.6,30.10,NNE,20,2.0,5.0,93,0.00,,,0.00,60.0,meteohub,2013-10-09 13:22:00,
2013-10-09 09:27:00,59.5,57.6,30.10,North,0,2.0,5.0,93,0.00,,,0.00,69.0,meteohub,2013-10-09 13:27:00,
2013-10-09 09:32:00,59.7,57.7,30.10,ENE,60,2.0,5.0,93,0.00,,,0.00,67.0,meteohub,2013-10-09 13:32:00,
2013-10-09 09:37:00,59.7,57.4,30.10,NW,312,0.0,5.0,92,0.00,,,0.00,65.0,meteohub,2013-10-09 13:37:00,
2013-10-09 09:42:00,59.7,57.7,30.10,NE,37,1.0,5.0,93,0.00,,,0.00,63.0,meteohub,2013-10-09 13:42:00,
2013-10-09 09:47:00,59.7,57.4,30.10,NNE,15,1.0,5.0,92,0.00,,,0.00,70.0,meteohub,2013-10-09 13:47:00,
2013-10-09 09:52:00,60.1,58.1,30.10,WNW,289,0.0,5.0,93,0.00,,,0.00,72.0,meteohub,2013-10-09 13:52:00,
2013-10-09 09:58:00,60.1,57.7,30.11,NNE,24,0.0,4.0,92,0.00,,,0.00,72.0,meteohub,2013-10-09 13:58:00,
2013-10-09 10:04:00,60.1,57.7,30.10,East,90,2.0,4.0,92,0.00,,,0.00,88.0,meteohub,2013-10-09 14:04:00,
2013-10-09 10:10:00,60.3,58.3,30.10,WNW,291,1.0,4.0,93,0.00,,,0.00,98.0,meteohub,2013-10-09 14:10:00,
2013-10-09 10:17:00,60.4,58.1,30.10,West,268,0.0,4.0,92,0.00,,,0.00,105.0,meteohub,2013-10-09 14:17:00,
2013-10-09 10:22:00,60.4,58.1,30.10,NNE,26,2.0,4.0,92,0.00,,,0.00,123.0,meteohub,2013-10-09 14:22:00,
2013-10-09 10:29:00,60.4,57.7,30.10,East,94,0.0,3.0,91,0.00,,,0.00,114.0,meteohub,2013-10-09 14:29:00,
2013-10-09 10:35:00,60.4,57.7,30.10,North,355,0.0,3.0,91,0.00,,,0.00,141.0,meteohub,2013-10-09 14:35:00,
2013-10-09 10:41:00,60.6,57.9,30.10,SSW,196,0.0,3.0,91,0.00,,,0.00,137.0,meteohub,2013-10-09 14:41:00,
2013-10-09 10:47:00,61.0,58.3,30.11,WNW,297,1.0,4.0,91,0.00,,,0.00,123.0,meteohub,2013-10-09 14:47:00,
2013-10-09 10:54:00,61.0,58.3,30.11,NNE,33,1.0,4.0,91,0.00,,,0.00,139.0,meteohub,2013-10-09 14:54:00,
2013-10-09 11:00:00,61.2,58.3,30.11,WSW,243,1.0,4.0,90,0.00,,,0.00,171.0,meteohub,2013-10-09 15:00:00,
2013-10-09 11:06:00,61.5,58.3,30.11,NNE,32,2.0,4.0,89,0.00,,,0.00,195.0,meteohub,2013-10-09 15:06:00,
2013-10-09 11:12:00,61.9,58.6,30.11,NNW,344,0.0,4.0,89,0.00,,,0.00,188.0,meteohub,2013-10-09 15:12:00,
2013-10-09 11:17:00,62.1,58.5,30.11,NNW,345,1.0,5.0,88,0.00,,,0.00,209.0,meteohub,2013-10-09 15:17:00,
2013-10-09 11:22:00,62.4,58.8,30.11,North,5,2.0,5.0,88,0.00,,,0.00,206.0,meteohub,2013-10-09 15:22:00,
2013-10-09 11:27:00,62.4,58.5,30.11,NE,42,2.0,5.0,87,0.00,,,0.00,288.0,meteohub,2013-10-09 15:27:00,
2013-10-09 11:32:00,63.0,59.4,30.11,NE,55,1.0,3.0,88,0.00,,,0.00,253.0,meteohub,2013-10-09 15:32:00,
2013-10-09 11:37:00,63.1,58.8,30.10,NE,36,1.0,3.0,86,0.00,,,0.00,357.0,meteohub,2013-10-09 15:37:00,
2013-10-09 11:42:00,63.7,59.4,30.10,NE,41,2.0,4.0,86,0.00,,,0.00,325.0,meteohub,2013-10-09 15:42:00,
2013-10-09 11:47:00,64.2,59.4,30.10,NNE,19,0.0,4.0,84,0.00,,,0.00,345.0,meteohub,2013-10-09 15:47:00,
2013-10-09 11:52:00,64.6,59.9,30.10,East,86,1.0,3.0,85,0.00,,,0.00,410.0,meteohub,2013-10-09 15:52:00,
2013-10-09 11:57:00,64.9,59.9,30.10,West,277,0.0,6.0,84,0.00,,,0.00,376.0,meteohub,2013-10-09 15:57:00,
2013-10-09 12:02:00,65.7,60.4,30.10,NE,50,1.0,6.0,83,0.00,,,0.00,411.0,meteohub,2013-10-09 16:02:00,
2013-10-09 12:07:00,65.8,60.3,30.10,North,11,3.0,6.0,82,0.00,,,0.00,517.0,meteohub,2013-10-09 16:07:00,
2013-10-09 12:12:00,66.0,60.4,30.10,ENE,61,1.0,5.0,82,0.00,,,0.00,366.0,meteohub,2013-10-09 16:12:00,
2013-10-09 12:17:00,66.4,61.3,30.09,SSW,192,0.0,5.0,84,0.00,,,0.00,610.0,meteohub,2013-10-09 16:17:00,
2013-10-09 12:22:00,66.9,61.0,30.09,WSW,253,5.0,5.0,81,0.00,,,0.00,258.0,meteohub,2013-10-09 16:22:00,
2013-10-09 12:29:00,67.6,62.2,30.09,NW,323,1.0,5.0,83,0.00,,,0.00,621.0,meteohub,2013-10-09 16:29:00,
2013-10-09 12:35:00,68.5,62.1,30.09,North,355,1.0,5.0,80,0.00,,,0.00,1102.0,meteohub,2013-10-09 16:35:00,
2013-10-09 12:42:00,69.4,61.9,30.09,SW,214,1.0,4.0,77,0.00,,,0.00,362.0,meteohub,2013-10-09 16:42:00,
2013-10-09 12:47:00,68.9,61.3,30.09,WSW,258,2.0,4.0,77,0.00,,,0.00,439.0,meteohub,2013-10-09 16:47:00,
2013-10-09 12:52:00,69.3,62.8,30.09,NW,325,1.0,5.0,80,0.00,,,0.00,529.0,meteohub,2013-10-09 16:52:00,
2013-10-09 12:57:00,69.4,62.2,30.08,WSW,240,0.0,5.0,78,0.00,,,0.00,434.0,meteohub,2013-10-09 16:57:00,
2013-10-09 13:03:00,69.4,62.2,30.08,ESE,119,0.0,5.0,78,0.00,,,0.00,359.0,meteohub,2013-10-09 17:03:00,
2013-10-09 13:09:00,70.0,62.4,30.08,SE,141,1.0,5.0,77,0.00,,,0.00,420.0,meteohub,2013-10-09 17:09:00,
2013-10-09 13:16:00,72.0,64.0,30.08,NNE,26,1.0,5.0,76,0.00,,,0.00,1074.0,meteohub,2013-10-09 17:16:00,
2013-10-09 13:22:00,71.1,62.8,30.08,NNW,332,0.0,4.0,75,0.00,,,0.00,408.0,meteohub,2013-10-09 17:22:00,
2013-10-09 13:27:00,71.2,63.3,30.08,WSW,252,2.0,4.0,76,0.00,,,0.00,1083.0,meteohub,2013-10-09 17:27:00,
2013-10-09 13:32:00,71.4,63.1,30.08,West,280,1.0,6.0,75,0.00,,,0.00,343.0,meteohub,2013-10-09 17:32:00,
2013-10-09 13:37:00,71.2,63.7,30.08,WSW,250,1.0,6.0,77,0.00,,,0.00,374.0,meteohub,2013-10-09 17:37:00,
2013-10-09 13:43:00,72.7,63.9,30.07,East,101,3.0,9.0,74,0.00,,,0.00,290.0,meteohub,2013-10-09 17:43:00,
2013-10-09 13:49:00,71.6,63.7,30.07,NW,309,2.0,6.0,76,0.00,,,0.00,861.0,meteohub,2013-10-09 17:49:00,
2013-10-09 13:56:00,72.7,63.9,30.07,North,11,2.0,6.0,74,0.00,,,0.00,244.0,meteohub,2013-10-09 17:56:00,
2013-10-09 14:02:00,72.1,63.9,30.06,ENE,60,2.0,5.0,75,0.00,,,0.00,295.0,meteohub,2013-10-09 18:02:00,
2013-10-09 14:08:00,72.7,64.2,30.06,North,355,2.0,5.0,75,0.00,,,0.00,970.0,meteohub,2013-10-09 18:08:00,
2013-10-09 14:14:00,74.7,64.2,30.06,West,264,2.0,5.0,70,0.00,,,0.00,821.0,meteohub,2013-10-09 18:14:00,
2013-10-09 14:20:00,74.3,65.5,30.06,NNE,28,2.0,6.0,74,0.00,,,0.00,962.0,meteohub,2013-10-09 18:20:00,
2013-10-09 14:26:00,74.7,65.5,30.05,WSW,241,5.0,6.0,73,0.00,,,0.00,907.0,meteohub,2013-10-09 18:26:00,
2013-10-09 14:32:00,74.8,65.1,30.05,NE,52,1.0,10.0,72,0.00,,,0.00,895.0,meteohub,2013-10-09 18:32:00,
2013-10-09 14:39:00,73.4,64.2,30.05,NE,50,5.0,10.0,73,0.00,,,0.00,130.0,meteohub,2013-10-09 18:39:00,
2013-10-09 14:45:00,74.8,65.1,30.05,East,94,2.0,10.0,72,0.00,,,0.00,812.0,meteohub,2013-10-09 18:45:00,
2013-10-09 14:51:00,75.4,65.3,30.05,NE,47,2.0,6.0,71,0.00,,,0.00,842.0,meteohub,2013-10-09 18:51:00,
2013-10-09 14:57:00,75.7,65.7,30.05,WNW,287,0.0,5.0,71,0.00,,,0.00,800.0,meteohub,2013-10-09 18:57:00,
2013-10-09 15:02:00,75.7,65.3,30.05,West,264,4.0,5.0,70,0.00,,,0.00,798.0,meteohub,2013-10-09 19:02:00,
2013-10-09 15:07:00,75.4,65.3,30.05,SE,130,2.0,5.0,71,0.00,,,0.00,798.0,meteohub,2013-10-09 19:07:00,
2013-10-09 15:12:00,75.7,64.8,30.05,ESE,109,0.0,6.0,69,0.00,,,0.00,754.0,meteohub,2013-10-09 19:12:00,
2013-10-09 15:17:00,75.6,65.5,30.05,NE,39,2.0,6.0,71,0.00,,,0.00,789.0,meteohub,2013-10-09 19:17:00,
2013-10-09 15:22:00,76.8,66.2,30.04,SE,133,3.0,4.0,70,0.00,,,0.00,735.0,meteohub,2013-10-09 19:22:00,
2013-10-09 15:27:00,76.8,65.5,30.04,ENE,78,2.0,4.0,68,0.00,,,0.00,132.0,meteohub,2013-10-09 19:27:00,
2013-10-09 15:32:00,75.2,65.1,30.04,NW,304,0.0,6.0,71,0.00,,,0.00,165.0,meteohub,2013-10-09 19:32:00,
2013-10-09 15:37:00,76.3,66.2,30.04,NNW,345,1.0,6.0,71,0.00,,,0.00,661.0,meteohub,2013-10-09 19:37:00,
2013-10-09 15:42:00,75.0,64.6,30.04,NW,304,1.0,4.0,70,0.00,,,0.00,585.0,meteohub,2013-10-09 19:42:00,
2013-10-09 15:47:00,75.9,65.5,30.04,NNW,345,0.0,4.0,70,0.00,,,0.00,643.0,meteohub,2013-10-09 19:47:00,
2013-10-09 15:52:00,76.6,66.2,30.04,NE,49,4.0,4.0,70,0.00,,,0.00,670.0,meteohub,2013-10-09 19:52:00,
2013-10-09 15:57:00,76.8,65.5,30.04,WSW,248,0.0,4.0,68,0.00,,,0.00,694.0,meteohub,2013-10-09 19:57:00,
2013-10-09 16:02:00,77.5,66.6,30.04,NNE,30,1.0,4.0,69,0.00,,,0.00,643.0,meteohub,2013-10-09 20:02:00,
2013-10-09 16:07:00,76.6,64.9,30.04,East,88,0.0,4.0,67,0.00,,,0.00,118.0,meteohub,2013-10-09 20:07:00,
2013-10-09 16:12:00,75.4,64.9,30.04,East,80,2.0,4.0,70,0.00,,,0.00,568.0,meteohub,2013-10-09 20:12:00,
2013-10-09 16:17:00,75.6,65.1,30.04,SE,127,1.0,4.0,70,0.00,,,0.00,72.0,meteohub,2013-10-09 20:17:00,
2013-10-09 16:22:00,76.8,65.8,30.04,ENE,77,2.0,3.0,69,0.00,,,0.00,81.0,meteohub,2013-10-09 20:22:00,
2013-10-09 16:27:00,75.7,65.7,30.03,NNE,26,1.0,3.0,71,0.00,,,0.00,100.0,meteohub,2013-10-09 20:27:00,
2013-10-09 16:32:00,75.9,65.8,30.03,NE,42,2.0,4.0,71,0.00,,,0.00,517.0,meteohub,2013-10-09 20:32:00,
2013-10-09 16:37:00,77.0,66.9,30.03,NW,306,2.0,4.0,71,0.00,,,0.00,545.0,meteohub,2013-10-09 20:37:00,
2013-10-09 16:42:00,76.8,65.8,30.03,NW,304,0.0,3.0,69,0.00,,,0.00,469.0,meteohub,2013-10-09 20:42:00,
2013-10-09 16:47:00,77.7,67.1,30.03,ENE,65,0.0,3.0,70,0.00,,,0.00,457.0,meteohub,2013-10-09 20:47:00,
2013-10-09 16:52:00,77.4,66.0,30.03,NNW,328,3.0,4.0,68,0.00,,,0.00,478.0,meteohub,2013-10-09 20:52:00,
2013-10-09 16:57:00,77.7,66.4,30.03,NE,51,2.0,5.0,68,0.00,,,0.00,448.0,meteohub,2013-10-09 20:57:00,
2013-10-09 17:02:00,77.2,65.8,30.03,East,101,1.0,5.0,68,0.00,,,0.00,441.0,meteohub,2013-10-09 21:02:00,
2013-10-09 17:07:00,77.2,66.2,30.03,NNE,32,0.0,5.0,69,0.00,,,0.00,429.0,meteohub,2013-10-09 21:07:00,
2013-10-09 17:12:00,76.3,65.8,30.03,North,5,0.0,4.0,70,0.00,,,0.00,339.0,meteohub,2013-10-09 21:12:00,
2013-10-09 17:17:00,76.5,65.5,30.03,NNE,24,1.0,3.0,69,0.00,,,0.00,330.0,meteohub,2013-10-09 21:17:00,
2013-10-09 17:22:00,76.5,65.5,30.03,NNW,327,1.0,5.0,69,0.00,,,0.00,316.0,meteohub,2013-10-09 21:22:00,
2013-10-09 17:27:00,76.5,66.0,30.03,South,174,0.0,5.0,70,0.00,,,0.00,327.0,meteohub,2013-10-09 21:27:00,
2013-10-09 17:32:00,76.5,66.0,30.03,ENE,77,1.0,4.0,70,0.00,,,0.00,287.0,meteohub,2013-10-09 21:32:00,
2013-10-09 17:37:00,76.3,65.3,30.03,WNW,286,1.0,4.0,69,0.00,,,0.00,253.0,meteohub,2013-10-09 21:37:00,
2013-10-09 17:42:00,76.3,65.8,30.03,ENE,61,1.0,4.0,70,0.00,,,0.00,244.0,meteohub,2013-10-09 21:42:00,
2013-10-09 17:47:00,75.9,65.5,30.03,SE,137,0.0,4.0,70,0.00,,,0.00,227.0,meteohub,2013-10-09 21:47:00,
2013-10-09 17:52:00,75.7,65.7,30.03,NE,40,1.0,3.0,71,0.00,,,0.00,206.0,meteohub,2013-10-09 21:52:00,
2013-10-09 17:57:00,75.6,65.8,30.02,NE,43,0.0,3.0,72,0.00,,,0.00,192.0,meteohub,2013-10-09 21:57:00,
2013-10-09 18:02:00,75.4,65.3,30.02,NNW,335,0.0,3.0,71,0.00,,,0.00,120.0,meteohub,2013-10-09 22:02:00,
2013-10-09 18:07:00,74.8,65.7,30.02,ENE,57,1.0,3.0,73,0.00,,,0.00,49.0,meteohub,2013-10-09 22:07:00,
2013-10-09 18:12:00,74.7,65.8,30.03,ENE,74,0.0,2.0,74,0.00,,,0.00,33.0,meteohub,2013-10-09 22:12:00,
2013-10-09 18:17:00,74.3,65.5,30.02,NE,42,0.0,2.0,74,0.00,,,0.00,26.0,meteohub,2013-10-09 22:17:00,
2013-10-09 18:22:00,73.9,65.5,30.02,NE,42,0.0,3.0,75,0.00,,,0.00,25.0,meteohub,2013-10-09 22:22:00,
2013-10-09 18:27:00,73.8,65.7,30.03,NE,49,0.0,3.0,76,0.00,,,0.00,21.0,meteohub,2013-10-09 22:27:00,
2013-10-09 18:32:00,73.0,66.2,30.03,NE,49,0.0,3.0,79,0.00,,,0.00,19.0,meteohub,2013-10-09 22:32:00,
2013-10-09 18:37:00,72.3,65.8,30.02,NE,49,0.0,3.0,80,0.00,,,0.00,18.0,meteohub,2013-10-09 22:37:00,
2013-10-09 18:42:00,72.0,66.2,30.02,NE,49,0.0,1.0,82,0.00,,,0.00,14.0,meteohub,2013-10-09 22:42:00,
2013-10-09 18:47:00,71.4,66.0,30.03,NE,49,0.0,1.0,83,0.00,,,0.00,12.0,meteohub,2013-10-09 22:47:00,
2013-10-09 18:52:00,71.1,66.0,30.03,NE,49,0.0,0.0,84,0.00,,,0.00,9.0,meteohub,2013-10-09 22:52:00,
2013-10-09 18:57:00,70.5,65.8,30.03,NE,49,0.0,0.0,85,0.00,,,0.00,7.0,meteohub,2013-10-09 22:57:00,
2013-10-09 19:02:00,70.2,65.8,30.03,NE,49,0.0,0.0,86,0.00,,,0.00,0.0,meteohub,2013-10-09 23:02:00,
2013-10-09 19:07:00,69.4,65.5,30.03,NE,49,0.0,0.0,87,0.00,,,0.00,0.0,meteohub,2013-10-09 23:07:00,
2013-10-09 19:12:00,69.3,65.5,30.03,NE,49,0.0,0.0,88,0.00,,,0.00,0.0,meteohub,2013-10-09 23:12:00,
2013-10-09 19:17:00,68.9,65.1,30.03,NE,49,0.0,0.0,88,0.00,,,0.00,0.0,meteohub,2013-10-09 23:17:00,
2013-10-09 19:22:00,68.5,65.1,30.03,NE,49,0.0,0.0,89,0.00,,,0.00,0.0,meteohub,2013-10-09 23:22:00,
2013-10-09 19:27:00,68.2,64.8,30.03,NE,49,0.0,0.0,89,0.00,,,0.00,0.0,meteohub,2013-10-09 23:27:00,
2013-10-09 19:32:00,67.6,64.6,30.03,NE,49,0.0,0.0,90,0.00,,,0.00,0.0,meteohub,2013-10-09 23:32:00,
2013-10-09 19:37:00,67.5,64.4,30.04,NE,49,0.0,0.0,90,0.00,,,0.00,0.0,meteohub,2013-10-09 23:37:00,
2013-10-09 19:42:00,67.1,64.4,30.03,NE,49,0.0,0.0,91,0.00,,,0.00,0.0,meteohub,2013-10-09 23:42:00,
2013-10-09 19:47:00,66.7,64.0,30.03,NE,49,0.0,0.0,91,0.00,,,0.00,0.0,meteohub,2013-10-09 23:47:00,
2013-10-09 19:52:00,66.6,64.2,30.03,NE,49,0.0,0.0,92,0.00,,,0.00,0.0,meteohub,2013-10-09 23:52:00,
2013-10-09 19:57:00,66.4,64.2,30.04,NE,49,0.0,0.0,93,0.00,,,0.00,0.0,meteohub,2013-10-09 23:57:00,
2013-10-09 20:02:00,66.2,64.0,30.03,NE,49,0.0,0.0,93,0.00,,,0.00,0.0,meteohub,2013-10-10 00:02:00,
2013-10-09 20:07:00,66.0,64.2,30.03,NE,49,0.0,0.0,94,0.00,,,0.00,0.0,meteohub,2013-10-10 00:07:00,
2013-10-09 20:12:00,65.8,64.0,30.03,NE,49,0.0,0.0,94,0.00,,,0.00,0.0,meteohub,2013-10-10 00:12:00,
2013-10-09 20:17:00,65.7,63.9,30.04,NE,49,0.0,0.0,94,0.00,,,0.00,0.0,meteohub,2013-10-10 00:17:00,
2013-10-09 20:22:00,65.7,64.2,30.03,NE,49,0.0,0.0,95,0.00,,,0.00,0.0,meteohub,2013-10-10 00:22:00,
2013-10-09 20:27:00,65.5,64.0,30.03,NE,49,0.0,0.0,95,0.00,,,0.00,0.0,meteohub,2013-10-10 00:27:00,
2013-10-09 20:32:00,65.3,63.9,30.04,NE,49,0.0,0.0,95,0.00,,,0.00,0.0,meteohub,2013-10-10 00:32:00,
2013-10-09 20:37:00,65.1,63.7,30.04,NE,49,0.0,0.0,95,0.00,,,0.00,0.0,meteohub,2013-10-10 00:37:00,
2013-10-09 20:42:00,64.9,63.9,30.04,NE,49,0.0,0.0,96,0.00,,,0.00,0.0,meteohub,2013-10-10 00:42:00,
2013-10-09 20:47:00,64.8,63.7,30.04,NE,49,0.0,0.0,96,0.00,,,0.00,0.0,meteohub,2013-10-10 00:47:00,
2013-10-09 20:52:00,64.8,63.7,30.04,NE,49,0.0,0.0,96,0.00,,,0.00,0.0,meteohub,2013-10-10 00:52:00,
2013-10-09 20:57:00,64.6,63.5,30.04,NE,49,0.0,1.0,96,0.00,,,0.00,0.0,meteohub,2013-10-10 00:57:00,
2013-10-09 21:02:00,64.6,63.5,30.04,NE,49,0.0,1.0,96,0.00,,,0.00,0.0,meteohub,2013-10-10 01:02:00,
2013-10-09 21:07:00,64.2,63.1,30.04,NE,49,0.0,1.0,96,0.00,,,0.00,0.0,meteohub,2013-10-10 01:07:00,
2013-10-09 21:12:00,64.0,63.0,30.04,NE,49,0.0,0.0,96,0.00,,,0.00,0.0,meteohub,2013-10-10 01:12:00,
2013-10-09 21:17:00,64.0,63.0,30.04,NE,49,0.0,0.0,96,0.00,,,0.00,0.0,meteohub,2013-10-10 01:17:00,
2013-10-09 21:22:00,64.0,63.0,30.04,NE,49,0.0,1.0,96,0.00,,,0.00,0.0,meteohub,2013-10-10 01:22:00,
2013-10-09 21:28:00,63.7,62.6,30.04,NE,49,0.0,1.0,96,0.00,,,0.00,0.0,meteohub,2013-10-10 01:28:00,
2013-10-09 21:34:00,63.7,62.8,30.04,NE,49,0.0,1.0,97,0.00,,,0.00,0.0,meteohub,2013-10-10 01:34:00,
2013-10-09 21:41:00,63.5,62.6,30.05,NE,49,0.0,1.0,97,0.00,,,0.00,0.0,meteohub,2013-10-10 01:41:00,
2013-10-09 21:47:00,63.3,62.4,30.04,NE,49,0.0,0.0,97,0.00,,,0.00,0.0,meteohub,2013-10-10 01:47:00,
2013-10-09 21:53:00,63.3,62.4,30.05,NE,49,0.0,0.0,97,0.00,,,0.00,0.0,meteohub,2013-10-10 01:53:00,
2013-10-09 21:59:00,63.1,62.2,30.05,NE,49,0.0,0.0,97,0.00,,,0.00,0.0,meteohub,2013-10-10 01:59:00,
2013-10-09 22:05:00,63.1,62.2,30.05,NE,49,0.0,0.0,97,0.00,,,0.00,0.0,meteohub,2013-10-10 02:05:00,
2013-10-09 22:11:00,63.0,62.1,30.06,NE,49,0.0,0.0,97,0.00,,,0.00,0.0,meteohub,2013-10-10 02:11:00,
2013-10-09 22:17:00,63.0,62.1,30.06,NE,49,0.0,0.0,97,0.00,,,0.00,0.0,meteohub,2013-10-10 02:17:00,
2013-10-09 22:22:00,63.0,62.1,30.06,NE,49,0.0,0.0,97,0.00,,,0.00,0.0,meteohub,2013-10-10 02:22:00,
2013-10-09 22:27:00,62.8,61.9,30.06,NE,49,0.0,0.0,97,0.00,,,0.00,0.0,meteohub,2013-10-10 02:27:00,
2013-10-09 22:32:00,62.6,61.7,30.06,NE,49,0.0,0.0,97,0.00,,,0.00,0.0,meteohub,2013-10-10 02:32:00,
2013-10-09 22:37:00,62.4,61.5,30.06,NE,49,0.0,0.0,97,0.00,,,0.00,0.0,meteohub,2013-10-10 02:37:00,
2013-10-09 22:42:00,62.4,61.5,30.06,NE,49,0.0,0.0,97,0.00,,,0.00,0.0,meteohub,2013-10-10 02:42:00,
2013-10-09 22:47:00,62.4,61.5,30.06,NE,49,0.0,0.0,97,0.00,,,0.00,0.0,meteohub,2013-10-10 02:47:00,
2013-10-09 22:52:00,62.4,61.5,30.06,NE,49,0.0,0.0,97,0.00,,,0.00,0.0,meteohub,2013-10-10 02:52:00,
2013-10-09 22:57:00,62.2,61.3,30.06,NE,49,0.0,0.0,97,0.00,,,0.00,0.0,meteohub,2013-10-10 02:57:00,
2013-10-09 23:02:00,62.1,61.2,30.06,NE,49,0.0,0.0,97,0.00,,,0.00,0.0,meteohub,2013-10-10 03:02:00,
2013-10-09 23:07:00,62.1,61.2,30.06,NE,49,0.0,0.0,97,0.00,,,0.00,0.0,meteohub,2013-10-10 03:07:00,
2013-10-09 23:12:00,62.1,61.2,30.06,NE,49,0.0,0.0,97,0.00,,,0.00,0.0,meteohub,2013-10-10 03:12:00,
2013-10-09 23:17:00,61.9,61.0,30.06,NE,49,0.0,0.0,97,0.00,,,0.00,0.0,meteohub,2013-10-10 03:17:00,
2013-10-09 23:22:00,61.7,60.8,30.06,NE,49,0.0,1.0,97,0.00,,,0.00,0.0,meteohub,2013-10-10 03:22:00,
2013-10-09 23:27:00,61.5,60.6,30.06,NE,49,0.0,1.0,97,0.00,,,0.00,0.0,meteohub,2013-10-10 03:27:00,
2013-10-09 23:32:00,61.3,60.4,30.06,NE,49,0.0,1.0,97,0.00,,,0.00,0.0,meteohub,2013-10-10 03:32:00,
2013-10-09 23:37:00,61.3,60.4,30.06,NE,49,0.0,1.0,97,0.00,,,0.00,0.0,meteohub,2013-10-10 03:37:00,
2013-10-09 23:42:00,61.2,60.3,30.06,NE,49,0.0,0.0,97,0.00,,,0.00,0.0,meteohub,2013-10-10 03:42:00,
2013-10-09 23:47:00,61.0,60.1,30.06,NE,49,0.0,0.0,97,0.00,,,0.00,0.0,meteohub,2013-10-10 03:47:00,
2013-10-09 23:52:00,61.0,60.1,30.05,NE,49,0.0,0.0,97,0.00,,,0.00,0.0,meteohub,2013-10-10 03:52:00,
2013-10-09 23:57:00,61.0,60.4,30.06,NE,49,0.0,0.0,98,0.00,,,0.00,0.0,meteohub,2013-10-10 03:57:00,